logo
Search for airport 
image banner adimage banner adimage banner ad
image banner ad

EYPI - Panevezys/Istra

Located in Panevezys, Lithuania

ICAO - EYPI, IATA -

Data provided by Airmate  

General information

Coordinates: N55°49'39" E24°21'30"
Elevation is 164 feet MSL.
Magnetic variation is 7° East
View others Airports in Panevežys County

Operational data

Special qualification required
Current time UTC:
Current local time:
METAR: EYSA 170550Z 33005KT CAVOK 04/01 Q1000 NOSIG
TAF: TAF EYSA 170501Z 1706/1715 VRB05KT 9000 SCT015 BECMG 1707/1709 BKN020 TEMPO 1709/1715 BKN015CB
View NOTAMs / SUP AIP / TFR affecting this airport [VIEW]
Communications frequencies: [VIEW]

Runways:

RWY identifierQFULength (ft)Width (ft)SurfaceLDA (ft)
12122°196966CONC+ASPH
30302°196966CONC+ASPH

Airport contact information

Address: Panevezys Lithuania

Satellite view of EYPI